sensor_id;sensor_type;location;lat;lon;timestamp;temperature;humidity
19330;DHT22;9799;48.214;16.388;2023-07-28T00:01:17;22.10;90.50
19330;DHT22;9799;48.214;16.388;2023-07-28T00:04:38;22.10;90.70
19330;DHT22;9799;48.214;16.388;2023-07-28T00:07:59;22.10;91.00
19330;DHT22;9799;48.214;16.388;2023-07-28T00:11:20;22.10;92.80
19330;DHT22;9799;48.214;16.388;2023-07-28T00:14:42;21.90;91.80
19330;DHT22;9799;48.214;16.388;2023-07-28T00:18:04;21.90;91.70
19330;DHT22;9799;48.214;16.388;2023-07-28T00:21:26;22.00;92.00
19330;DHT22;9799;48.214;16.388;2023-07-28T00:24:47;22.10;91.80
19330;DHT22;9799;48.214;16.388;2023-07-28T00:28:09;22.10;91.70
19330;DHT22;9799;48.214;16.388;2023-07-28T00:31:30;22.10;91.80
19330;DHT22;9799;48.214;16.388;2023-07-28T00:34:52;22.10;92.00
19330;DHT22;9799;48.214;16.388;2023-07-28T00:38:13;22.10;92.10
19330;DHT22;9799;48.214;16.388;2023-07-28T00:41:35;22.00;92.50
19330;DHT22;9799;48.214;16.388;2023-07-28T00:44:56;21.90;92.70
19330;DHT22;9799;48.214;16.388;2023-07-28T00:48:17;22.00;92.70
19330;DHT22;9799;48.214;16.388;2023-07-28T00:51:41;22.00;92.80
19330;DHT22;9799;48.214;16.388;2023-07-28T00:55:03;22.00;93.10
19330;DHT22;9799;48.214;16.388;2023-07-28T00:58:24;21.90;93.40
19330;DHT22;9799;48.214;16.388;2023-07-28T01:01:45;21.90;94.80
19330;DHT22;9799;48.214;16.388;2023-07-28T01:05:07;21.80;93.90
19330;DHT22;9799;48.214;16.388;2023-07-28T01:08:33;21.90;94.10
19330;DHT22;9799;48.214;16.388;2023-07-28T01:11:55;21.90;94.30
19330;DHT22;9799;48.214;16.388;2023-07-28T01:15:16;21.90;95.00
19330;DHT22;9799;48.214;16.388;2023-07-28T01:18:49;21.90;95.20
19330;DHT22;9799;48.214;16.388;2023-07-28T01:22:49;21.90;95.60
19330;DHT22;9799;48.214;16.388;2023-07-28T01:26:15;22.00;96.10
19330;DHT22;9799;48.214;16.388;2023-07-28T01:29:44;22.00;96.70
19330;DHT22;9799;48.214;16.388;2023-07-28T01:33:35;21.90;97.60
19330;DHT22;9799;48.214;16.388;2023-07-28T01:37:04;21.90;98.30
19330;DHT22;9799;48.214;16.388;2023-07-28T01:40:25;22.00;98.70
19330;DHT22;9799;48.214;16.388;2023-07-28T01:43:47;21.90;99.30
19330;DHT22;9799;48.214;16.388;2023-07-28T01:47:09;21.90;99.90
19330;DHT22;9799;48.214;16.388;2023-07-28T01:50:30;21.90;99.90
19330;DHT22;9799;48.214;16.388;2023-07-28T01:53:51;21.90;99.90
19330;DHT22;9799;48.214;16.388;2023-07-28T01:57:12;21.90;99.90
19330;DHT22;9799;48.214;16.388;2023-07-28T02:00:57;21.90;99.90
19330;DHT22;9799;48.214;16.388;2023-07-28T02:04:24;21.90;99.90
19330;DHT22;9799;48.214;16.388;2023-07-28T02:07:45;21.70;99.90
19330;DHT22;9799;48.214;16.388;2023-07-28T02:11:06;21.70;99.90
19330;DHT22;9799;48.214;16.388;2023-07-28T02:14:27;21.60;99.90
19330;DHT22;9799;48.214;16.388;2023-07-28T02:17:49;21.70;99.90
19330;DHT22;9799;48.214;16.388;2023-07-28T02:21:11;21.70;99.90
19330;DHT22;9799;48.214;16.388;2023-07-28T02:24:32;21.50;99.90
19330;DHT22;9799;48.214;16.388;2023-07-28T02:27:53;21.50;99.90
19330;DHT22;9799;48.214;16.388;2023-07-28T02:31:14;21.50;99.90
19330;DHT22;9799;48.214;16.388;2023-07-28T02:34:35;21.60;99.90
19330;DHT22;9799;48.214;16.388;2023-07-28T02:37:58;21.60;99.90
19330;DHT22;9799;48.214;16.388;2023-07-28T02:41:19;21.50;99.90
19330;DHT22;9799;48.214;16.388;2023-07-28T02:44:41;21.40;99.90
19330;DHT22;9799;48.214;16.388;2023-07-28T02:48:03;21.50;99.90
19330;DHT22;9799;48.214;16.388;2023-07-28T02:51:24;21.50;99.90
19330;DHT22;9799;48.214;16.388;2023-07-28T02:54:47;21.40;99.90
19330;DHT22;9799;48.214;16.388;2023-07-28T02:58:10;21.30;99.90
19330;DHT22;9799;48.214;16.388;2023-07-28T03:01:31;21.30;99.90
19330;DHT22;9799;48.214;16.388;2023-07-28T03:04:53;21.40;99.90
19330;DHT22;9799;48.214;16.388;2023-07-28T03:08:14;21.40;99.90
19330;DHT22;9799;48.214;16.388;2023-07-28T03:11:36;21.40;99.90
19330;DHT22;9799;48.214;16.388;2023-07-28T03:14:57;21.40;99.90
19330;DHT22;9799;48.214;16.388;2023-07-28T03:18:19;21.40;99.90
19330;DHT22;9799;48.214;16.388;2023-07-28T03:21:40;21.40;99.90
19330;DHT22;9799;48.214;16.388;2023-07-28T03:25:01;21.30;99.90
19330;DHT22;9799;48.214;16.388;2023-07-28T03:28:24;21.30;99.90
19330;DHT22;9799;48.214;16.388;2023-07-28T03:31:45;21.30;99.90
19330;DHT22;9799;48.214;16.388;2023-07-28T03:35:07;21.30;99.90
19330;DHT22;9799;48.214;16.388;2023-07-28T03:38:29;21.30;99.90
19330;DHT22;9799;48.214;16.388;2023-07-28T03:41:50;21.20;99.90
19330;DHT22;9799;48.214;16.388;2023-07-28T03:45:12;21.20;99.90
19330;DHT22;9799;48.214;16.388;2023-07-28T03:48:33;21.20;99.90
19330;DHT22;9799;48.214;16.388;2023-07-28T03:51:55;21.30;99.90
19330;DHT22;9799;48.214;16.388;2023-07-28T03:55:16;21.30;99.90
19330;DHT22;9799;48.214;16.388;2023-07-28T03:58:37;21.20;99.90
19330;DHT22;9799;48.214;16.388;2023-07-28T04:01:59;21.20;99.90
19330;DHT22;9799;48.214;16.388;2023-07-28T04:05:20;21.30;99.90
19330;DHT22;9799;48.214;16.388;2023-07-28T04:08:41;21.30;99.90
19330;DHT22;9799;48.214;16.388;2023-07-28T04:12:03;21.20;99.90
19330;DHT22;9799;48.214;16.388;2023-07-28T04:15:24;21.20;99.90
19330;DHT22;9799;48.214;16.388;2023-07-28T04:18:47;21.20;99.90
19330;DHT22;9799;48.214;16.388;2023-07-28T04:22:08;21.20;99.90
19330;DHT22;9799;48.214;16.388;2023-07-28T04:25:29;21.30;99.90
19330;DHT22;9799;48.214;16.388;2023-07-28T04:28:51;21.40;99.90
19330;DHT22;9799;48.214;16.388;2023-07-28T04:32:12;21.40;99.90
19330;DHT22;9799;48.214;16.388;2023-07-28T04:35:34;21.40;99.90
19330;DHT22;9799;48.214;16.388;2023-07-28T04:38:56;21.40;99.90
19330;DHT22;9799;48.214;16.388;2023-07-28T04:42:17;21.50;99.90
19330;DHT22;9799;48.214;16.388;2023-07-28T04:45:38;21.50;99.90
19330;DHT22;9799;48.214;16.388;2023-07-28T04:48:59;21.60;99.90
19330;DHT22;9799;48.214;16.388;2023-07-28T04:52:24;21.60;99.90
19330;DHT22;9799;48.214;16.388;2023-07-28T04:55:44;21.70;99.90
19330;DHT22;9799;48.214;16.388;2023-07-28T04:59:06;21.70;99.90
19330;DHT22;9799;48.214;16.388;2023-07-28T05:02:27;21.70;99.90
19330;DHT22;9799;48.214;16.388;2023-07-28T05:05:48;21.70;99.90
19330;DHT22;9799;48.214;16.388;2023-07-28T05:09:10;21.60;99.90
19330;DHT22;9799;48.214;16.388;2023-07-28T05:12:31;21.70;99.90
19330;DHT22;9799;48.214;16.388;2023-07-28T05:15:53;21.70;99.90
19330;DHT22;9799;48.214;16.388;2023-07-28T05:19:14;21.80;99.90
19330;DHT22;9799;48.214;16.388;2023-07-28T05:22:35;21.80;99.90
19330;DHT22;9799;48.214;16.388;2023-07-28T05:25:58;21.80;99.90
19330;DHT22;9799;48.214;16.388;2023-07-28T05:29:19;21.80;99.90
19330;DHT22;9799;48.214;16.388;2023-07-28T05:32:40;21.90;99.90
19330;DHT22;9799;48.214;16.388;2023-07-28T05:36:02;21.80;99.90
19330;DHT22;9799;48.214;16.388;2023-07-28T05:39:23;21.60;99.90
19330;DHT22;9799;48.214;16.388;2023-07-28T05:42:46;21.50;99.90
19330;DHT22;9799;48.214;16.388;2023-07-28T05:46:07;21.40;99.90
19330;DHT22;9799;48.214;16.388;2023-07-28T05:49:28;21.50;99.90
19330;DHT22;9799;48.214;16.388;2023-07-28T05:52:50;21.60;99.90
19330;DHT22;9799;48.214;16.388;2023-07-28T05:56:11;21.60;99.90
19330;DHT22;9799;48.214;16.388;2023-07-28T05:59:34;21.60;99.90
19330;DHT22;9799;48.214;16.388;2023-07-28T06:02:55;21.70;99.90
19330;DHT22;9799;48.214;16.388;2023-07-28T06:06:16;21.70;99.90
19330;DHT22;9799;48.214;16.388;2023-07-28T06:09:38;21.90;99.90
19330;DHT22;9799;48.214;16.388;2023-07-28T06:12:59;22.00;99.90
19330;DHT22;9799;48.214;16.388;2023-07-28T06:16:22;22.00;99.90
19330;DHT22;9799;48.214;16.388;2023-07-28T06:19:44;21.90;99.90
19330;DHT22;9799;48.214;16.388;2023-07-28T06:23:05;22.00;99.90
19330;DHT22;9799;48.214;16.388;2023-07-28T06:26:26;22.00;99.90
19330;DHT22;9799;48.214;16.388;2023-07-28T06:29:47;22.00;99.90
19330;DHT22;9799;48.214;16.388;2023-07-28T06:33:10;22.30;99.90
19330;DHT22;9799;48.214;16.388;2023-07-28T06:36:31;22.50;99.90
19330;DHT22;9799;48.214;16.388;2023-07-28T06:39:52;22.60;99.90
19330;DHT22;9799;48.214;16.388;2023-07-28T06:43:14;22.60;99.90
19330;DHT22;9799;48.214;16.388;2023-07-28T06:46:38;22.70;99.90
19330;DHT22;9799;48.214;16.388;2023-07-28T06:50:00;22.80;99.90
19330;DHT22;9799;48.214;16.388;2023-07-28T06:53:21;22.90;99.90
19330;DHT22;9799;48.214;16.388;2023-07-28T06:56:42;23.00;99.30
19330;DHT22;9799;48.214;16.388;2023-07-28T07:00:04;23.10;99.40
19330;DHT22;9799;48.214;16.388;2023-07-28T07:03:28;23.30;98.80
19330;DHT22;9799;48.214;16.388;2023-07-28T07:06:51;23.40;99.90
19330;DHT22;9799;48.214;16.388;2023-07-28T07:10:12;23.30;99.30
19330;DHT22;9799;48.214;16.388;2023-07-28T07:13:33;23.60;99.90
19330;DHT22;9799;48.214;16.388;2023-07-28T07:16:54;23.70;99.90
19330;DHT22;9799;48.214;16.388;2023-07-28T07:20:16;23.90;97.50
19330;DHT22;9799;48.214;16.388;2023-07-28T07:23:38;24.00;97.30
19330;DHT22;9799;48.214;16.388;2023-07-28T07:26:59;24.10;96.50
19330;DHT22;9799;48.214;16.388;2023-07-28T07:30:20;24.10;96.40
19330;DHT22;9799;48.214;16.388;2023-07-28T07:33:42;24.10;95.80
19330;DHT22;9799;48.214;16.388;2023-07-28T07:37:05;24.30;95.80
19330;DHT22;9799;48.214;16.388;2023-07-28T07:40:28;24.30;95.80
19330;DHT22;9799;48.214;16.388;2023-07-28T07:43:51;24.50;95.00
19330;DHT22;9799;48.214;16.388;2023-07-28T07:47:13;24.60;96.50
19330;DHT22;9799;48.214;16.388;2023-07-28T07:50:35;24.80;97.80
19330;DHT22;9799;48.214;16.388;2023-07-28T07:53:56;24.80;94.20
19330;DHT22;9799;48.214;16.388;2023-07-28T07:57:18;25.00;93.80
19330;DHT22;9799;48.214;16.388;2023-07-28T08:00:39;25.30;93.50
19330;DHT22;9799;48.214;16.388;2023-07-28T08:04:05;25.50;92.60
19330;DHT22;9799;48.214;16.388;2023-07-28T08:07:43;25.60;93.50
19330;DHT22;9799;48.214;16.388;2023-07-28T08:11:08;25.60;93.30
19330;DHT22;9799;48.214;16.388;2023-07-28T08:14:40;25.70;93.00
19330;DHT22;9799;48.214;16.388;2023-07-28T08:18:01;25.90;92.40
19330;DHT22;9799;48.214;16.388;2023-07-28T08:21:23;26.00;93.00
19330;DHT22;9799;48.214;16.388;2023-07-28T08:24:44;26.30;92.40
19330;DHT22;9799;48.214;16.388;2023-07-28T08:28:05;26.60;92.00
19330;DHT22;9799;48.214;16.388;2023-07-28T08:31:27;26.70;92.70
19330;DHT22;9799;48.214;16.388;2023-07-28T08:34:49;26.60;92.20
19330;DHT22;9799;48.214;16.388;2023-07-28T08:38:10;26.50;93.10
19330;DHT22;9799;48.214;16.388;2023-07-28T08:41:32;26.70;92.00
19330;DHT22;9799;48.214;16.388;2023-07-28T08:44:53;26.80;91.90
19330;DHT22;9799;48.214;16.388;2023-07-28T08:48:15;26.90;91.90
19330;DHT22;9799;48.214;16.388;2023-07-28T08:51:41;27.00;91.90
19330;DHT22;9799;48.214;16.388;2023-07-28T08:55:03;27.10;91.30
19330;DHT22;9799;48.214;16.388;2023-07-28T08:58:24;27.30;91.20
19330;DHT22;9799;48.214;16.388;2023-07-28T09:01:45;27.30;91.50
19330;DHT22;9799;48.214;16.388;2023-07-28T09:05:17;27.60;90.60
19330;DHT22;9799;48.214;16.388;2023-07-28T09:08:39;27.80;90.40
19330;DHT22;9799;48.214;16.388;2023-07-28T09:12:00;27.80;89.80
19330;DHT22;9799;48.214;16.388;2023-07-28T09:15:22;27.80;89.90
19330;DHT22;9799;48.214;16.388;2023-07-28T09:18:43;27.90;89.80
19330;DHT22;9799;48.214;16.388;2023-07-28T09:22:05;27.80;90.30
19330;DHT22;9799;48.214;16.388;2023-07-28T09:25:28;27.90;89.30
19330;DHT22;9799;48.214;16.388;2023-07-28T09:28:50;27.90;91.00
19330;DHT22;9799;48.214;16.388;2023-07-28T09:32:11;27.90;89.00
19330;DHT22;9799;48.214;16.388;2023-07-28T09:35:32;27.80;89.20
19330;DHT22;9799;48.214;16.388;2023-07-28T09:38:55;28.00;89.00
19330;DHT22;9799;48.214;16.388;2023-07-28T09:42:17;28.10;87.10
19330;DHT22;9799;48.214;16.388;2023-07-28T09:45:42;28.10;86.10
19330;DHT22;9799;48.214;16.388;2023-07-28T09:49:05;27.80;88.00
19330;DHT22;9799;48.214;16.388;2023-07-28T09:52:41;28.00;86.50
19330;DHT22;9799;48.214;16.388;2023-07-28T09:56:28;28.30;85.80
19330;DHT22;9799;48.214;16.388;2023-07-28T09:59:51;28.30;85.20
19330;DHT22;9799;48.214;16.388;2023-07-28T10:03:16;28.40;84.80
19330;DHT22;9799;48.214;16.388;2023-07-28T10:06:38;28.20;84.50
19330;DHT22;9799;48.214;16.388;2023-07-28T10:09:59;28.30;84.90
19330;DHT22;9799;48.214;16.388;2023-07-28T10:13:22;28.60;84.60
19330;DHT22;9799;48.214;16.388;2023-07-28T10:16:43;28.50;84.50
19330;DHT22;9799;48.214;16.388;2023-07-28T10:20:05;28.50;84.90
19330;DHT22;9799;48.214;16.388;2023-07-28T10:23:29;28.60;84.30
19330;DHT22;9799;48.214;16.388;2023-07-28T10:26:58;28.70;84.30
19330;DHT22;9799;48.214;16.388;2023-07-28T10:30:20;28.90;83.90
19330;DHT22;9799;48.214;16.388;2023-07-28T10:33:44;29.00;82.90
19330;DHT22;9799;48.214;16.388;2023-07-28T10:37:06;29.00;83.10
19330;DHT22;9799;48.214;16.388;2023-07-28T10:40:28;28.90;83.90
19330;DHT22;9799;48.214;16.388;2023-07-28T10:43:50;29.10;82.90
19330;DHT22;9799;48.214;16.388;2023-07-28T10:47:13;29.00;84.10
19330;DHT22;9799;48.214;16.388;2023-07-28T10:50:35;29.00;83.50
19330;DHT22;9799;48.214;16.388;2023-07-28T10:53:57;29.10;83.70
19330;DHT22;9799;48.214;16.388;2023-07-28T10:57:18;29.20;84.20
19330;DHT22;9799;48.214;16.388;2023-07-28T11:00:39;29.00;84.40
19330;DHT22;9799;48.214;16.388;2023-07-28T11:04:10;29.00;84.40
19330;DHT22;9799;48.214;16.388;2023-07-28T11:07:31;28.70;85.20
19330;DHT22;9799;48.214;16.388;2023-07-28T11:10:55;28.40;86.50
19330;DHT22;9799;48.214;16.388;2023-07-28T11:14:17;28.30;87.00
19330;DHT22;9799;48.214;16.388;2023-07-28T11:17:39;28.40;86.70
19330;DHT22;9799;48.214;16.388;2023-07-28T11:21:02;28.40;86.70
19330;DHT22;9799;48.214;16.388;2023-07-28T11:24:23;28.60;86.90
19330;DHT22;9799;48.214;16.388;2023-07-28T11:27:45;28.80;86.10
19330;DHT22;9799;48.214;16.388;2023-07-28T11:31:08;28.70;86.60
19330;DHT22;9799;48.214;16.388;2023-07-28T11:34:35;28.70;86.60
19330;DHT22;9799;48.214;16.388;2023-07-28T11:37:58;28.90;87.80
19330;DHT22;9799;48.214;16.388;2023-07-28T11:41:20;29.20;86.10
19330;DHT22;9799;48.214;16.388;2023-07-28T11:44:41;29.00;85.80
19330;DHT22;9799;48.214;16.388;2023-07-28T11:48:04;29.20;85.40
19330;DHT22;9799;48.214;16.388;2023-07-28T11:51:25;29.30;85.10
19330;DHT22;9799;48.214;16.388;2023-07-28T11:54:51;29.50;84.60
19330;DHT22;9799;48.214;16.388;2023-07-28T11:58:12;29.50;84.30
19330;DHT22;9799;48.214;16.388;2023-07-28T12:01:34;29.50;84.10
19330;DHT22;9799;48.214;16.388;2023-07-28T12:04:56;29.40;84.50
19330;DHT22;9799;48.214;16.388;2023-07-28T12:08:35;29.70;83.70
19330;DHT22;9799;48.214;16.388;2023-07-28T12:11:59;29.70;82.40
19330;DHT22;9799;48.214;16.388;2023-07-28T12:15:25;29.90;79.40
19330;DHT22;9799;48.214;16.388;2023-07-28T12:18:57;29.80;79.90
19330;DHT22;9799;48.214;16.388;2023-07-28T12:22:19;29.50;80.20
19330;DHT22;9799;48.214;16.388;2023-07-28T12:25:40;29.60;82.50
19330;DHT22;9799;48.214;16.388;2023-07-28T12:29:03;29.50;81.60
19330;DHT22;9799;48.214;16.388;2023-07-28T12:32:25;29.20;82.30
19330;DHT22;9799;48.214;16.388;2023-07-28T12:35:46;28.90;84.20
19330;DHT22;9799;48.214;16.388;2023-07-28T12:39:07;29.00;83.20
19330;DHT22;9799;48.214;16.388;2023-07-28T12:42:28;28.90;84.00
19330;DHT22;9799;48.214;16.388;2023-07-28T12:45:51;28.70;84.30
19330;DHT22;9799;48.214;16.388;2023-07-28T12:49:13;28.60;85.00
19330;DHT22;9799;48.214;16.388;2023-07-28T12:52:35;28.60;85.40
19330;DHT22;9799;48.214;16.388;2023-07-28T12:55:56;28.30;86.70
19330;DHT22;9799;48.214;16.388;2023-07-28T12:59:17;28.20;87.30
19330;DHT22;9799;48.214;16.388;2023-07-28T13:02:40;28.00;88.30
19330;DHT22;9799;48.214;16.388;2023-07-28T13:06:02;28.00;88.60
19330;DHT22;9799;48.214;16.388;2023-07-28T13:09:23;27.90;89.00
19330;DHT22;9799;48.214;16.388;2023-07-28T13:12:45;27.80;89.30
19330;DHT22;9799;48.214;16.388;2023-07-28T13:16:06;27.80;89.90
19330;DHT22;9799;48.214;16.388;2023-07-28T13:19:28;27.70;90.10
19330;DHT22;9799;48.214;16.388;2023-07-28T13:22:49;27.40;90.20
19330;DHT22;9799;48.214;16.388;2023-07-28T13:26:11;27.40;90.00
19330;DHT22;9799;48.214;16.388;2023-07-28T13:29:32;27.30;90.40
19330;DHT22;9799;48.214;16.388;2023-07-28T13:32:53;27.30;90.10
19330;DHT22;9799;48.214;16.388;2023-07-28T13:36:15;27.30;90.80
19330;DHT22;9799;48.214;16.388;2023-07-28T13:39:37;27.50;91.20
19330;DHT22;9799;48.214;16.388;2023-07-28T13:43:00;27.50;91.00
19330;DHT22;9799;48.214;16.388;2023-07-28T13:46:22;27.60;91.00
19330;DHT22;9799;48.214;16.388;2023-07-28T13:49:43;27.70;91.20
19330;DHT22;9799;48.214;16.388;2023-07-28T13:53:05;27.70;91.20
19330;DHT22;9799;48.214;16.388;2023-07-28T13:56:27;27.60;90.80
19330;DHT22;9799;48.214;16.388;2023-07-28T13:59:48;27.70;90.90
19330;DHT22;9799;48.214;16.388;2023-07-28T14:03:09;27.70;90.90
19330;DHT22;9799;48.214;16.388;2023-07-28T14:06:30;27.60;90.60
19330;DHT22;9799;48.214;16.388;2023-07-28T14:09:53;27.70;90.40
19330;DHT22;9799;48.214;16.388;2023-07-28T14:13:14;27.60;90.90
19330;DHT22;9799;48.214;16.388;2023-07-28T14:16:35;27.70;91.00
19330;DHT22;9799;48.214;16.388;2023-07-28T14:19:56;27.70;90.90
19330;DHT22;9799;48.214;16.388;2023-07-28T14:23:22;27.70;90.70
19330;DHT22;9799;48.214;16.388;2023-07-28T14:26:45;27.80;90.90
19330;DHT22;9799;48.214;16.388;2023-07-28T14:30:07;28.00;90.30
19330;DHT22;9799;48.214;16.388;2023-07-28T14:33:28;27.70;90.40
19330;DHT22;9799;48.214;16.388;2023-07-28T14:36:49;27.60;90.30
19330;DHT22;9799;48.214;16.388;2023-07-28T14:40:11;27.60;90.30
19330;DHT22;9799;48.214;16.388;2023-07-28T14:43:33;27.60;90.30
19330;DHT22;9799;48.214;16.388;2023-07-28T14:46:55;27.60;90.70
19330;DHT22;9799;48.214;16.388;2023-07-28T14:50:16;27.50;90.30
19330;DHT22;9799;48.214;16.388;2023-07-28T14:53:38;27.40;90.60
19330;DHT22;9799;48.214;16.388;2023-07-28T14:56:59;27.30;91.00
19330;DHT22;9799;48.214;16.388;2023-07-28T15:00:22;27.30;91.00
19330;DHT22;9799;48.214;16.388;2023-07-28T15:03:43;27.30;91.30
19330;DHT22;9799;48.214;16.388;2023-07-28T15:07:05;27.20;91.70
19330;DHT22;9799;48.214;16.388;2023-07-28T15:10:27;27.30;91.20
19330;DHT22;9799;48.214;16.388;2023-07-28T15:13:48;27.40;91.10
19330;DHT22;9799;48.214;16.388;2023-07-28T15:17:10;27.40;90.90
19330;DHT22;9799;48.214;16.388;2023-07-28T15:20:32;27.40;91.10
19330;DHT22;9799;48.214;16.388;2023-07-28T15:23:54;27.20;91.30
19330;DHT22;9799;48.214;16.388;2023-07-28T15:27:15;27.30;91.50
19330;DHT22;9799;48.214;16.388;2023-07-28T15:30:36;27.30;91.70
19330;DHT22;9799;48.214;16.388;2023-07-28T15:33:59;27.40;91.90
19330;DHT22;9799;48.214;16.388;2023-07-28T15:37:20;27.50;92.00
19330;DHT22;9799;48.214;16.388;2023-07-28T15:40:41;27.60;92.00
19330;DHT22;9799;48.214;16.388;2023-07-28T15:44:02;27.60;92.10
19330;DHT22;9799;48.214;16.388;2023-07-28T15:47:25;27.60;92.10
19330;DHT22;9799;48.214;16.388;2023-07-28T15:50:47;27.80;92.10
19330;DHT22;9799;48.214;16.388;2023-07-28T15:54:09;27.90;92.00
19330;DHT22;9799;48.214;16.388;2023-07-28T15:57:30;27.80;91.80
19330;DHT22;9799;48.214;16.388;2023-07-28T16:00:51;27.80;91.60
19330;DHT22;9799;48.214;16.388;2023-07-28T16:04:12;28.00;91.40
19330;DHT22;9799;48.214;16.388;2023-07-28T16:07:35;28.10;91.30
19330;DHT22;9799;48.214;16.388;2023-07-28T16:10:56;28.00;90.90
19330;DHT22;9799;48.214;16.388;2023-07-28T16:14:17;27.90;91.20
19330;DHT22;9799;48.214;16.388;2023-07-28T16:17:38;27.70;91.70
19330;DHT22;9799;48.214;16.388;2023-07-28T16:21:00;27.90;91.40
19330;DHT22;9799;48.214;16.388;2023-07-28T16:24:22;27.90;91.40
19330;DHT22;9799;48.214;16.388;2023-07-28T16:27:44;27.70;91.60
19330;DHT22;9799;48.214;16.388;2023-07-28T16:31:05;27.80;91.60
19330;DHT22;9799;48.214;16.388;2023-07-28T16:34:27;27.70;91.60
19330;DHT22;9799;48.214;16.388;2023-07-28T16:37:49;27.70;91.90
19330;DHT22;9799;48.214;16.388;2023-07-28T16:41:12;27.60;91.90
19330;DHT22;9799;48.214;16.388;2023-07-28T16:44:33;27.60;92.10
19330;DHT22;9799;48.214;16.388;2023-07-28T16:47:54;27.50;92.20
19330;DHT22;9799;48.214;16.388;2023-07-28T16:51:15;27.50;92.40
19330;DHT22;9799;48.214;16.388;2023-07-28T16:54:36;27.40;92.50
19330;DHT22;9799;48.214;16.388;2023-07-28T16:57:59;27.30;92.80
19330;DHT22;9799;48.214;16.388;2023-07-28T17:01:20;27.20;93.10
19330;DHT22;9799;48.214;16.388;2023-07-28T17:04:42;27.20;93.20
19330;DHT22;9799;48.214;16.388;2023-07-28T17:08:03;27.00;93.10
19330;DHT22;9799;48.214;16.388;2023-07-28T17:11:24;27.00;93.30
19330;DHT22;9799;48.214;16.388;2023-07-28T17:14:47;26.90;93.50
19330;DHT22;9799;48.214;16.388;2023-07-28T17:18:08;27.00;93.60
19330;DHT22;9799;48.214;16.388;2023-07-28T17:21:30;26.90;94.00
19330;DHT22;9799;48.214;16.388;2023-07-28T17:24:51;26.70;94.00
19330;DHT22;9799;48.214;16.388;2023-07-28T17:28:13;26.80;94.00
19330;DHT22;9799;48.214;16.388;2023-07-28T17:31:36;26.80;94.00
19330;DHT22;9799;48.214;16.388;2023-07-28T17:34:57;26.70;94.00
19330;DHT22;9799;48.214;16.388;2023-07-28T17:38:18;26.70;94.10
19330;DHT22;9799;48.214;16.388;2023-07-28T17:41:39;26.70;94.30
19330;DHT22;9799;48.214;16.388;2023-07-28T17:45:01;26.70;94.30
19330;DHT22;9799;48.214;16.388;2023-07-28T17:48:27;26.60;94.80
19330;DHT22;9799;48.214;16.388;2023-07-28T17:51:50;26.50;94.70
19330;DHT22;9799;48.214;16.388;2023-07-28T17:55:12;26.50;94.80
19330;DHT22;9799;48.214;16.388;2023-07-28T17:58:33;26.60;94.90
19330;DHT22;9799;48.214;16.388;2023-07-28T18:01:55;26.60;95.00
19330;DHT22;9799;48.214;16.388;2023-07-28T18:05:18;26.50;95.30
19330;DHT22;9799;48.214;16.388;2023-07-28T18:08:40;26.50;95.50
19330;DHT22;9799;48.214;16.388;2023-07-28T18:12:02;26.50;95.40
19330;DHT22;9799;48.214;16.388;2023-07-28T18:15:25;26.40;95.50
19330;DHT22;9799;48.214;16.388;2023-07-28T18:18:47;26.40;95.90
19330;DHT22;9799;48.214;16.388;2023-07-28T18:22:10;26.30;96.20
19330;DHT22;9799;48.214;16.388;2023-07-28T18:25:32;26.30;96.50
19330;DHT22;9799;48.214;16.388;2023-07-28T18:28:55;26.30;96.20
19330;DHT22;9799;48.214;16.388;2023-07-28T18:32:16;26.30;96.40
19330;DHT22;9799;48.214;16.388;2023-07-28T18:35:39;26.10;96.90
19330;DHT22;9799;48.214;16.388;2023-07-28T18:39:02;26.00;97.30
19330;DHT22;9799;48.214;16.388;2023-07-28T18:42:26;26.00;97.20
19330;DHT22;9799;48.214;16.388;2023-07-28T18:45:48;26.00;97.20
19330;DHT22;9799;48.214;16.388;2023-07-28T18:49:10;26.00;97.30
19330;DHT22;9799;48.214;16.388;2023-07-28T18:52:32;26.00;97.40
19330;DHT22;9799;48.214;16.388;2023-07-28T18:55:55;26.00;97.70
19330;DHT22;9799;48.214;16.388;2023-07-28T18:59:17;26.00;97.60
19330;DHT22;9799;48.214;16.388;2023-07-28T19:02:39;25.90;97.90
19330;DHT22;9799;48.214;16.388;2023-07-28T19:06:01;25.90;97.90
19330;DHT22;9799;48.214;16.388;2023-07-28T19:09:23;25.70;98.20
19330;DHT22;9799;48.214;16.388;2023-07-28T19:12:47;25.60;98.40
19330;DHT22;9799;48.214;16.388;2023-07-28T19:16:09;25.60;98.40
19330;DHT22;9799;48.214;16.388;2023-07-28T19:19:31;25.60;98.60
19330;DHT22;9799;48.214;16.388;2023-07-28T19:22:54;25.60;98.70
19330;DHT22;9799;48.214;16.388;2023-07-28T19:26:17;25.60;98.90
19330;DHT22;9799;48.214;16.388;2023-07-28T19:29:41;25.40;98.90
19330;DHT22;9799;48.214;16.388;2023-07-28T19:33:03;25.40;98.90
19330;DHT22;9799;48.214;16.388;2023-07-28T19:36:25;25.40;99.00
19330;DHT22;9799;48.214;16.388;2023-07-28T19:39:47;25.50;99.00
19330;DHT22;9799;48.214;16.388;2023-07-28T19:43:11;25.50;99.00
19330;DHT22;9799;48.214;16.388;2023-07-28T19:46:39;25.40;99.10
19330;DHT22;9799;48.214;16.388;2023-07-28T19:50:01;25.30;99.40
19330;DHT22;9799;48.214;16.388;2023-07-28T19:53:24;25.30;99.50
19330;DHT22;9799;48.214;16.388;2023-07-28T19:56:50;25.30;99.50
19330;DHT22;9799;48.214;16.388;2023-07-28T20:00:12;25.20;99.70
19330;DHT22;9799;48.214;16.388;2023-07-28T20:03:36;25.10;99.90
19330;DHT22;9799;48.214;16.388;2023-07-28T20:06:57;25.20;99.90
19330;DHT22;9799;48.214;16.388;2023-07-28T20:10:18;25.10;99.90
19330;DHT22;9799;48.214;16.388;2023-07-28T20:13:41;25.10;99.90
19330;DHT22;9799;48.214;16.388;2023-07-28T20:17:04;25.00;99.90
19330;DHT22;9799;48.214;16.388;2023-07-28T20:20:29;25.00;99.90
19330;DHT22;9799;48.214;16.388;2023-07-28T20:23:51;25.00;99.90
19330;DHT22;9799;48.214;16.388;2023-07-28T20:27:15;25.00;99.90
19330;DHT22;9799;48.214;16.388;2023-07-28T20:30:37;24.90;99.90
19330;DHT22;9799;48.214;16.388;2023-07-28T20:33:59;24.90;99.90
19330;DHT22;9799;48.214;16.388;2023-07-28T20:37:22;24.90;99.90
19330;DHT22;9799;48.214;16.388;2023-07-28T20:40:45;24.90;99.90
19330;DHT22;9799;48.214;16.388;2023-07-28T20:44:06;24.90;99.90
19330;DHT22;9799;48.214;16.388;2023-07-28T20:47:28;24.80;99.90
19330;DHT22;9799;48.214;16.388;2023-07-28T20:50:50;24.80;99.90
19330;DHT22;9799;48.214;16.388;2023-07-28T20:54:13;24.80;99.90
19330;DHT22;9799;48.214;16.388;2023-07-28T20:57:37;24.70;99.90
19330;DHT22;9799;48.214;16.388;2023-07-28T21:00:59;24.60;99.90
19330;DHT22;9799;48.214;16.388;2023-07-28T21:04:23;24.70;99.90
19330;DHT22;9799;48.214;16.388;2023-07-28T21:07:44;24.70;99.90
19330;DHT22;9799;48.214;16.388;2023-07-28T21:11:06;24.60;99.90
19330;DHT22;9799;48.214;16.388;2023-07-28T21:14:28;24.60;99.90
19330;DHT22;9799;48.214;16.388;2023-07-28T21:17:49;24.50;99.90